Time;durP1;ratioP1;P1;durP2;ratioP2;P2;SDS_P1;SDS_P2;PMS_P1;PMS_P2;Temp;Humidity;BMP_temperature;BMP_pressure;BME280_temperature;BME280_humidity;BME280_pressure;Samples;Min_cycle;Max_cycle;Signal;HPM_P1;HPM_P2
2022/05/12 00:01:14;;;;;;;;;;;11.60;99.90;;;;;;5084482;28;19932;-46
2022/05/12 00:03:40;;;;;;;;;;;11.60;99.90;;;;;;5085753;28;20366;-45
2022/05/12 00:06:05;;;;;;;;;;;11.50;99.90;;;;;;5085171;28;19924;-45
2022/05/12 00:08:31;;;;;;;;;;;11.50;99.90;;;;;;5085454;28;19924;-47
2022/05/12 00:10:57;;;;;;;;;;;11.40;99.90;;;;;;5085028;28;19925;-47
2022/05/12 00:13:22;;;;;;;;;;;11.40;99.90;;;;;;5065304;28;19950;-46
2022/05/12 00:15:48;;;;;;;;;;;11.30;99.90;;;;;;5084117;28;19924;-46
2022/05/12 00:18:14;;;;;;;;;;;;;;;;;;5084528;28;20032;-47
2022/05/12 00:20:41;;;;;;;;;;;;;;;;;;5083281;28;20340;-47
2022/05/12 00:23:08;;;;;;;;;;;;;;;;;;5085697;28;19928;-45
2022/05/12 00:25:34;;;;;;;;;;;;;;;;;;5084459;28;19955;-47
2022/05/12 00:28:00;;;;;;;;;;;;;;;;;;5082766;28;20415;-50
2022/05/12 00:30:26;;;;;;;;;;;;;;;;;;5086383;28;19924;-46
2022/05/12 00:32:52;;;;;;;;;;;;;;;;;;5087082;28;19931;-48
2022/05/12 00:35:18;;;;;;;;;;;;;;;;;;5086967;28;19982;-45
2022/05/12 00:37:44;;;;;;;;;;;;;;;;;;5086150;28;19931;-46
2022/05/12 00:40:09;;;;;;;;;;;;;;;;;;5065283;28;19973;-46
2022/05/12 00:42:35;;;;;;;;;;;;;;;;;;5086577;28;20324;-46
2022/05/12 00:45:01;;;;;;;;;;;10.90;99.90;;;;;;5084208;28;19972;-47
2022/05/12 00:47:26;;;;;;;;;;;11.00;99.90;;;;;;5088443;28;19985;-46
2022/05/12 00:49:52;;;;;;;;;;;10.80;99.90;;;;;;5090100;28;20261;-45
2022/05/12 00:52:19;;;;;;;;;;;10.70;99.90;;;;;;5066243;28;19997;-45
2022/05/12 00:54:57;;;;;;;;;;;10.70;99.90;;;;;;5088736;28;19971;-47
2022/05/12 00:57:26;;;;;;;;;;;10.60;99.90;;;;;;5087620;28;20657;-45
2022/05/12 00:59:54;;;;;;;;;;;;;;;;;;5088599;28;20001;-48
2022/05/12 01:02:20;;;;;;;;;;;;;;;;;;5086897;28;20360;-47
2022/05/12 01:04:45;;;;;;;;;;;;;;;;;;5089617;28;20019;-46
2022/05/12 01:07:11;;;;;;;;;;;;;;;;;;5088624;28;20021;-47
2022/05/12 01:09:37;;;;;;;;;;;;;;;;;;5088056;28;19932;-48
2022/05/12 01:12:03;;;;;;;;;;;;;;;;;;5087667;28;19924;-48
2022/05/12 01:14:29;;;;;;;;;;;;;;;;;;5087422;28;19932;-46
2022/05/12 01:16:55;;;;;;;;;;;;;;;;;;5087886;28;20367;-47
2022/05/12 01:19:21;;;;;;;;;;;;;;;;;;5087331;28;19924;-48
2022/05/12 01:21:47;;;;;;;;;;;;;;;;;;5085956;28;19942;-46
2022/05/12 01:24:13;;;;;;;;;;;;;;;;;;5086440;28;19939;-47
2022/05/12 01:26:38;;;;;;;;;;;;;;;;;;5088797;28;19931;-45
2022/05/12 01:29:04;;;;;;;;;;;;;;;;;;5088801;28;19928;-45
2022/05/12 01:31:30;;;;;;;;;;;;;;;;;;5087503;28;19932;-47
2022/05/12 01:33:56;;;;;;;;;;;;;;;;;;5090494;28;19924;-46
2022/05/12 01:36:22;;;;;;;;;;;;;;;;;;5087563;28;20308;-45
2022/05/12 01:38:48;;;;;;;;;;;;;;;;;;5088535;28;19943;-45
2022/05/12 01:41:14;;;;;;;;;;;10.20;99.90;;;;;;5085750;28;19940;-45
2022/05/12 01:43:40;;;;;;;;;;;10.20;99.90;;;;;;5087165;28;19931;-45
2022/05/12 01:46:06;;;;;;;;;;;10.10;99.90;;;;;;5087021;28;20236;-47
2022/05/12 01:48:31;;;;;;;;;;;10.10;99.90;;;;;;5083334;28;19931;-47
2022/05/12 01:50:57;;;;;;;;;;;10.10;99.90;;;;;;5119043;22;19924;-48
2022/05/12 01:53:23;;;;;;;;;;;10.00;99.90;;;;;;5088493;28;20283;-48
2022/05/12 01:55:49;;;;;;;;;;;10.00;99.90;;;;;;5089907;28;19931;-48
2022/05/12 01:58:18;;;;;;;;;;;10.00;99.90;;;;;;5085224;28;19924;-48
2022/05/12 02:00:43;;;;;;;;;;;9.90;99.90;;;;;;5087864;28;20390;-49
2022/05/12 02:03:09;;;;;;;;;;;9.90;99.90;;;;;;5087130;28;19985;-52
2022/05/12 02:05:36;;;;;;;;;;;9.90;99.90;;;;;;5070591;28;20287;-49
2022/05/12 02:08:02;;;;;;;;;;;9.90;99.90;;;;;;5086440;28;20279;-51
2022/05/12 02:10:29;;;;;;;;;;;9.80;99.90;;;;;;5086457;28;19936;-49
2022/05/12 02:12:55;;;;;;;;;;;9.90;99.90;;;;;;5087347;28;19932;-51
2022/05/12 02:15:20;;;;;;;;;;;9.90;99.90;;;;;;5088240;28;19931;-47
2022/05/12 02:17:46;;;;;;;;;;;9.90;99.90;;;;;;5086671;28;19925;-48
2022/05/12 02:20:13;;;;;;;;;;;9.80;99.90;;;;;;5087223;28;20347;-47
2022/05/12 02:22:39;;;;;;;;;;;9.90;99.90;;;;;;5087792;28;20004;-47
2022/05/12 02:25:05;;;;;;;;;;;9.90;99.90;;;;;;5085133;28;19932;-48
2022/05/12 02:27:31;;;;;;;;;;;9.90;99.90;;;;;;5085385;28;19928;-47
2022/05/12 02:29:56;;;;;;;;;;;9.80;99.90;;;;;;5085325;28;20373;-47
2022/05/12 02:32:22;;;;;;;;;;;9.80;99.90;;;;;;5087199;28;19932;-48
2022/05/12 02:34:47;;;;;;;;;;;9.70;99.90;;;;;;5087366;28;19978;-49
2022/05/12 02:37:16;;;;;;;;;;;9.70;99.90;;;;;;5090071;28;20034;-46
2022/05/12 02:39:42;;;;;;;;;;;9.70;99.90;;;;;;5083713;28;20027;-46
2022/05/12 02:42:09;;;;;;;;;;;9.70;99.90;;;;;;5086349;28;19951;-47
2022/05/12 02:44:34;;;;;;;;;;;9.80;99.90;;;;;;5086409;28;19939;-49
2022/05/12 02:47:00;;;;;;;;;;;9.80;99.90;;;;;;5084769;28;19924;-47
2022/05/12 02:49:26;;;;;;;;;;;9.80;99.90;;;;;;5087134;28;19955;-47
2022/05/12 02:51:52;;;;;;;;;;;9.70;99.90;;;;;;5087086;28;20421;-47
2022/05/12 02:54:18;;;;;;;;;;;9.70;99.90;;;;;;5084589;28;19939;-49
2022/05/12 02:56:44;;;;;;;;;;;9.70;99.90;;;;;;5089220;28;19976;-50
2022/05/12 02:59:10;;;;;;;;;;;9.70;99.90;;;;;;5065848;28;20062;-47
2022/05/12 03:01:36;;;;;;;;;;;9.70;99.90;;;;;;5086131;28;19924;-48
2022/05/12 03:04:01;;;;;;;;;;;9.70;99.90;;;;;;5086048;28;20314;-48
2022/05/12 03:06:27;;;;;;;;;;;9.70;99.90;;;;;;5089217;28;20023;-49
2022/05/12 03:08:53;;;;;;;;;;;9.60;99.90;;;;;;5067121;28;20058;-47
2022/05/12 03:11:19;;;;;;;;;;;9.60;99.90;;;;;;5086640;28;20271;-48
2022/05/12 03:13:45;;;;;;;;;;;9.60;99.90;;;;;;5084890;28;20034;-47
2022/05/12 03:16:11;;;;;;;;;;;9.60;99.90;;;;;;5083080;28;19932;-48
2022/05/12 03:18:36;;;;;;;;;;;9.50;99.90;;;;;;5087937;28;19924;-48
2022/05/12 03:21:03;;;;;;;;;;;9.50;99.90;;;;;;5087062;28;20298;-48
2022/05/12 03:23:28;;;;;;;;;;;9.50;99.90;;;;;;5084068;28;19935;-48
2022/05/12 03:25:54;;;;;;;;;;;9.50;99.90;;;;;;5087330;28;19924;-47
2022/05/12 03:28:20;;;;;;;;;;;9.50;99.90;;;;;;5084715;28;20002;-48
2022/05/12 03:30:46;;;;;;;;;;;9.50;99.90;;;;;;5085771;28;19978;-47
2022/05/12 03:33:12;;;;;;;;;;;9.50;99.90;;;;;;5088032;28;19970;-47
2022/05/12 03:35:37;;;;;;;;;;;9.40;99.90;;;;;;5086284;28;19932;-47
2022/05/12 03:38:03;;;;;;;;;;;9.50;99.90;;;;;;5092544;28;20012;-46
2022/05/12 03:40:28;;;;;;;;;;;9.40;99.90;;;;;;5084235;28;20286;-47
2022/05/12 03:42:58;;;;;;;;;;;9.40;99.90;;;;;;5085910;28;19933;-46
2022/05/12 03:45:24;;;;;;;;;;;9.40;99.90;;;;;;5084454;28;19935;-46
2022/05/12 03:47:50;;;;;;;;;;;9.40;99.90;;;;;;5085406;28;20374;-48
2022/05/12 03:50:18;;;;;;;;;;;9.40;99.90;;;;;;5084296;28;19931;-47
2022/05/12 03:52:43;;;;;;;;;;;9.40;99.90;;;;;;5085724;28;19928;-47
2022/05/12 03:55:11;;;;;;;;;;;9.40;99.90;;;;;;5083233;28;20408;-47
2022/05/12 03:57:38;;;;;;;;;;;9.50;99.90;;;;;;5085640;28;19977;-47
2022/05/12 04:00:06;;;;;;;;;;;9.50;99.90;;;;;;5085207;28;19932;-48
2022/05/12 04:02:31;;;;;;;;;;;9.50;99.90;;;;;;5085575;28;20022;-48
2022/05/12 04:04:57;;;;;;;;;;;9.60;99.90;;;;;;5081887;28;20075;-49
2022/05/12 04:07:22;;;;;;;;;;;9.60;99.90;;;;;;5088354;28;19977;-46
2022/05/12 04:09:48;;;;;;;;;;;9.60;99.90;;;;;;5086700;28;19925;-48
2022/05/12 04:12:14;;;;;;;;;;;9.60;99.90;;;;;;5085489;28;20457;-48
2022/05/12 04:14:41;;;;;;;;;;;9.60;99.90;;;;;;5085424;28;19924;-49
2022/05/12 04:17:08;;;;;;;;;;;9.70;99.90;;;;;;5085985;28;19928;-50
2022/05/12 04:19:33;;;;;;;;;;;9.70;99.90;;;;;;5082687;28;20420;-50
2022/05/12 04:21:58;;;;;;;;;;;9.80;99.90;;;;;;5089799;28;19975;-48
2022/05/12 04:24:24;;;;;;;;;;;9.80;99.90;;;;;;5090261;28;19931;-47
2022/05/12 04:26:49;;;;;;;;;;;9.80;99.90;;;;;;5086363;28;19981;-47
2022/05/12 04:29:15;;;;;;;;;;;9.90;99.90;;;;;;5087053;28;20026;-47
2022/05/12 04:31:41;;;;;;;;;;;9.90;99.90;;;;;;5091393;28;20315;-46
2022/05/12 04:36:50;;;;;;;;;;;10.00;99.90;;;;;;5091164;28;20132;-46
2022/05/12 04:39:17;;;;;;;;;;;10.10;99.90;;;;;;5090842;28;20104;-47
2022/05/12 04:41:43;;;;;;;;;;;10.20;99.90;;;;;;5086683;28;19924;-48
2022/05/12 04:44:09;;;;;;;;;;;11.50;99.90;;;;;;5086791;28;19924;-47
2022/05/12 04:46:35;;;;;;;;;;;12.00;99.90;;;;;;5089445;28;19924;-48
2022/05/12 04:49:01;;;;;;;;;;;12.50;99.90;;;;;;5086516;28;19954;-47
2022/05/12 04:51:26;;;;;;;;;;;13.30;99.90;;;;;;5085155;28;19979;-46
2022/05/12 04:53:52;;;;;;;;;;;14.00;99.90;;;;;;5085683;28;19982;-47
2022/05/12 04:56:17;;;;;;;;;;;14.50;99.90;;;;;;5087492;28;20339;-48
2022/05/12 04:58:43;;;;;;;;;;;15.10;99.90;;;;;;5087267;28;19924;-47
2022/05/12 05:01:08;;;;;;;;;;;15.60;99.90;;;;;;5087006;28;19930;-47
2022/05/12 05:03:34;;;;;;;;;;;16.00;99.90;;;;;;5070092;28;19935;-51
2022/05/12 05:05:59;;;;;;;;;;;16.40;99.90;;;;;;5090200;28;19931;-47
2022/05/12 05:08:25;;;;;;;;;;;16.60;99.90;;;;;;5087978;28;19964;-49
2022/05/12 05:10:53;;;;;;;;;;;16.40;99.90;;;;;;5087675;28;19959;-47
2022/05/12 05:13:19;;;;;;;;;;;16.50;99.90;;;;;;5087029;28;19943;-49
2022/05/12 05:15:45;;;;;;;;;;;16.30;99.90;;;;;;5085358;28;20028;-47
2022/05/12 05:18:12;;;;;;;;;;;16.50;99.90;;;;;;5089981;28;19928;-47
2022/05/12 05:20:37;;;;;;;;;;;16.90;99.90;;;;;;5089923;28;20248;-53
2022/05/12 05:23:03;;;;;;;;;;;16.50;99.90;;;;;;5089489;28;19936;-53
2022/05/12 05:25:31;;;;;;;;;;;16.80;99.90;;;;;;5085951;28;20319;-48
2022/05/12 05:27:56;;;;;;;;;;;16.70;99.90;;;;;;5087768;28;19924;-49
2022/05/12 05:30:23;;;;;;;;;;;17.30;99.90;;;;;;5088204;28;19924;-50
2022/05/12 05:32:49;;;;;;;;;;;18.20;99.90;;;;;;5087408;28;19924;-51
2022/05/12 05:35:15;;;;;;;;;;;;;;;;;;5088084;28;19935;-48
2022/05/12 05:37:42;;;;;;;;;;;19.10;99.90;;;;;;5080466;28;19931;-47
2022/05/12 05:40:08;;;;;;;;;;;19.40;99.90;;;;;;5083013;28;20382;-48
2022/05/12 05:42:33;;;;;;;;;;;19.30;99.90;;;;;;5081956;28;20069;-49
2022/05/12 05:44:59;;;;;;;;;;;19.20;99.90;;;;;;5083429;28;20385;-51
2022/05/12 05:47:25;;;;;;;;;;;19.20;99.90;;;;;;5088942;28;20335;-49
2022/05/12 05:49:50;;;;;;;;;;;19.00;99.90;;;;;;5086526;28;19931;-51
2022/05/12 05:55:00;;;;;;;;;;;19.00;99.90;;;;;;5088945;28;20178;-51
2022/05/12 05:57:27;;;;;;;;;;;19.30;99.90;;;;;;5087691;28;19938;-48
2022/05/12 05:59:55;;;;;;;;;;;19.50;99.90;;;;;;5087555;28;19978;-48
2022/05/12 06:02:20;;;;;;;;;;;20.10;99.90;;;;;;5085278;28;19932;-48
2022/05/12 06:04:46;;;;;;;;;;;20.20;99.90;;;;;;5087967;28;19924;-48
2022/05/12 06:07:11;;;;;;;;;;;20.60;99.90;;;;;;5089378;28;19928;-51
2022/05/12 06:09:37;;;;;;;;;;;20.60;99.90;;;;;;5087847;28;19924;-49
2022/05/12 06:12:03;;;;;;;;;;;20.70;99.90;;;;;;5088446;28;19985;-49
2022/05/12 06:14:30;;;;;;;;;;;20.80;99.90;;;;;;5088695;28;19955;-49
2022/05/12 06:16:56;;;;;;;;;;;21.30;99.90;;;;;;5087221;28;19992;-51
2022/05/12 06:19:21;;;;;;;;;;;21.20;99.90;;;;;;5088980;28;20378;-48
2022/05/12 06:21:48;;;;;;;;;;;21.70;99.90;;;;;;5090118;28;19924;-46
2022/05/12 06:24:14;;;;;;;;;;;21.70;99.90;;;;;;5088207;28;19963;-49
2022/05/12 06:26:39;;;;;;;;;;;22.20;99.90;;;;;;5083220;28;19961;-51
2022/05/12 06:29:06;;;;;;;;;;;22.20;99.90;;;;;;5081187;28;19947;-49
2022/05/12 06:31:32;;;;;;;;;;;22.20;99.90;;;;;;5080533;28;20320;-51
2022/05/12 06:33:58;;;;;;;;;;;22.50;99.90;;;;;;5081962;28;19993;-48
2022/05/12 06:36:24;;;;;;;;;;;22.40;99.90;;;;;;5082760;28;19932;-50
2022/05/12 06:38:50;;;;;;;;;;;22.70;99.90;;;;;;5081716;28;19971;-51
2022/05/12 06:41:15;;;;;;;;;;;22.80;99.90;;;;;;5082023;28;19968;-47
2022/05/12 06:43:45;;;;;;;;;;;22.90;97.80;;;;;;5080290;28;19928;-50
2022/05/12 06:46:11;;;;;;;;;;;23.00;98.20;;;;;;5083104;28;20306;-51
2022/05/12 06:48:37;;;;;;;;;;;23.10;98.30;;;;;;5081431;28;19985;-50
2022/05/12 06:51:02;;;;;;;;;;;23.10;97.40;;;;;;5085953;28;19940;-49
2022/05/12 06:53:28;;;;;;;;;;;23.00;97.80;;;;;;5068931;28;19935;-51
2022/05/12 06:55:53;;;;;;;;;;;23.10;97.20;;;;;;5086507;28;19924;-50
2022/05/12 06:58:19;;;;;;;;;;;23.10;94.70;;;;;;5087345;28;19930;-49
2022/05/12 07:00:44;;;;;;;;;;;23.10;95.40;;;;;;5081181;28;19932;-50
2022/05/12 07:03:12;;;;;;;;;;;22.80;94.50;;;;;;5077970;28;19925;-47
2022/05/12 07:05:39;;;;;;;;;;;23.00;96.20;;;;;;5080257;28;19924;-47
2022/05/12 07:08:05;;;;;;;;;;;23.00;93.40;;;;;;5083459;28;19931;-51
2022/05/12 07:10:31;;;;;;;;;;;22.50;94.10;;;;;;5082250;28;19924;-50
2022/05/12 07:12:57;;;;;;;;;;;22.40;99.10;;;;;;5082332;28;19981;-49
2022/05/12 07:15:25;;;;;;;;;;;22.20;99.90;;;;;;5081866;28;20400;-49
2022/05/12 07:17:51;;;;;;;;;;;22.50;99.70;;;;;;5060302;28;19932;-51
2022/05/12 07:28:46;;;;;;;;;;;22.80;97.60;;;;;;5021147;28;19936;-47
2022/05/12 07:31:12;;;;;;;;;;;22.70;98.90;;;;;;5023826;28;19925;-49
2022/05/12 07:33:44;;;;;;;;;;;22.40;99.50;;;;;;5019860;28;19932;-48
2022/05/12 07:36:18;;;;;;;;;;;21.80;99.90;;;;;;5020251;28;20837;-47
2022/05/12 07:38:43;;;;;;;;;;;21.40;99.90;;;;;;5017143;28;20011;-47
2022/05/12 07:41:12;;;;;;;;;;;21.10;99.90;;;;;;5016792;28;19933;-47
2022/05/12 07:43:40;;;;;;;;;;;20.70;99.90;;;;;;5019817;28;20324;-48
2022/05/12 07:46:06;;;;;;;;;;;20.30;99.90;;;;;;5015982;28;19944;-50
2022/05/12 07:48:32;;;;;;;;;;;20.00;99.90;;;;;;5018491;28;19937;-48
2022/05/12 07:50:58;;;;;;;;;;;19.70;99.90;;;;;;5018346;28;19933;-47
2022/05/12 07:53:23;;;;;;;;;;;19.60;99.90;;;;;;5017564;28;19975;-50
2022/05/12 07:55:49;;;;;;;;;;;19.50;99.90;;;;;;5019891;28;19925;-52
2022/05/12 07:58:15;;;;;;;;;;;19.50;99.90;;;;;;5073147;28;19936;-47
2022/05/12 08:00:41;;;;;;;;;;;19.70;99.90;;;;;;5079816;28;19932;-50
2022/05/12 08:03:06;;;;;;;;;;;19.90;99.90;;;;;;5080973;28;19942;-48
2022/05/12 08:05:31;;;;;;;;;;;19.30;99.90;;;;;;5081223;28;20289;-47
2022/05/12 08:07:57;;;;;;;;;;;19.20;99.90;;;;;;5082127;28;19932;-47
2022/05/12 08:10:23;;;;;;;;;;;19.30;99.90;;;;;;5081549;28;19928;-48
2022/05/12 08:12:49;;;;;;;;;;;19.10;99.90;;;;;;5084114;28;20011;-48
2022/05/12 08:15:15;;;;;;;;;;;19.20;99.90;;;;;;5085397;28;19967;-52
2022/05/12 08:17:40;;;;;;;;;;;19.20;99.90;;;;;;5086713;28;19979;-47
2022/05/12 08:20:09;;;;;;;;;;;19.30;99.90;;;;;;5083054;28;19931;-47
2022/05/12 08:22:34;;;;;;;;;;;19.40;99.90;;;;;;5084343;28;19924;-48
2022/05/12 08:25:00;;;;;;;;;;;19.50;99.90;;;;;;5084681;28;19986;-47
2022/05/12 08:27:25;;;;;;;;;;;19.10;99.90;;;;;;5082131;28;20281;-47
2022/05/12 08:29:51;;;;;;;;;;;19.10;99.90;;;;;;5086114;28;19985;-47
2022/05/12 08:32:17;;;;;;;;;;;19.10;99.90;;;;;;5086125;28;19927;-47
2022/05/12 08:34:43;;;;;;;;;;;19.30;99.90;;;;;;5079646;28;19930;-48
2022/05/12 08:37:10;;;;;;;;;;;19.40;99.90;;;;;;5088555;28;19978;-47
2022/05/12 08:39:35;;;;;;;;;;;19.20;99.90;;;;;;5086153;28;19934;-47
2022/05/12 08:42:08;;;;;;;;;;;19.30;99.90;;;;;;5088568;28;20345;-47
2022/05/12 08:44:36;;;;;;;;;;;19.60;99.90;;;;;;5087058;28;19994;-47
2022/05/12 08:47:03;;;;;;;;;;;19.80;99.90;;;;;;5089657;28;19947;-48
2022/05/12 08:49:47;;;;;;;;;;;20.40;99.90;;;;;;5086757;28;20439;-48
2022/05/12 08:52:31;;;;;;;;;;;20.40;99.90;;;;;;5084458;28;19985;-49
2022/05/12 08:54:59;;;;;;;;;;;20.30;99.90;;;;;;5085865;28;20295;-47
2022/05/12 08:57:27;;;;;;;;;;;20.70;99.90;;;;;;5085969;28;19924;-48
2022/05/12 08:59:52;;;;;;;;;;;20.30;97.70;;;;;;5082557;28;20578;-48
2022/05/12 09:02:36;;;;;;;;;;;19.90;98.10;;;;;;5082604;28;19923;-46
2022/05/12 09:05:05;;;;;;;;;;;19.20;96.20;;;;;;5084249;28;19924;-47
2022/05/12 09:07:51;;;;;;;;;;;18.80;98.40;;;;;;5092048;28;19928;-48
2022/05/12 09:10:25;;;;;;;;;;;18.40;99.90;;;;;;5086090;28;20259;-47
2022/05/12 09:13:03;;;;;;;;;;;18.70;99.90;;;;;;5083843;28;19931;-48
2022/05/12 09:15:33;;;;;;;;;;;18.60;99.90;;;;;;5086275;28;19967;-48
2022/05/12 09:18:08;;;;;;;;;;;19.20;99.90;;;;;;5086541;28;20243;-48
2022/05/12 09:20:34;;;;;;;;;;;19.10;98.50;;;;;;5085229;28;19987;-48
2022/05/12 09:23:00;;;;;;;;;;;19.30;99.50;;;;;;5085428;28;19936;-47
2022/05/12 09:25:29;;;;;;;;;;;19.40;97.70;;;;;;5086803;28;19958;-47
2022/05/12 09:27:58;;;;;;;;;;;19.80;99.40;;;;;;5085840;28;19990;-48
2022/05/12 09:30:35;;;;;;;;;;;19.60;99.90;;;;;;5087238;28;20004;-48
2022/05/12 09:33:00;;;;;;;;;;;19.70;94.00;;;;;;5086005;28;20397;-48
2022/05/12 09:35:27;;;;;;;;;;;19.90;99.10;;;;;;5085971;28;19939;-48
2022/05/12 09:37:53;;;;;;;;;;;19.50;97.00;;;;;;5085463;28;19957;-48
2022/05/12 09:40:35;;;;;;;;;;;19.60;99.70;;;;;;5084906;28;19932;-48
2022/05/12 09:43:02;;;;;;;;;;;19.60;96.50;;;;;;5086776;28;19924;-47
2022/05/12 09:45:36;;;;;;;;;;;19.60;94.30;;;;;;5083680;28;20393;-48
2022/05/12 09:48:17;;;;;;;;;;;20.00;96.70;;;;;;5083465;28;19931;-47
2022/05/12 09:50:42;;;;;;;;;;;20.60;99.90;;;;;;5084358;28;19942;-48
2022/05/12 09:53:08;;;;;;;;;;;20.80;95.40;;;;;;5084001;28;19935;-49
2022/05/12 09:55:39;;;;;;;;;;;20.90;92.30;;;;;;5083214;28;19932;-49
2022/05/12 09:58:13;;;;;;;;;;;21.20;96.10;;;;;;5082559;28;19970;-49
2022/05/12 10:00:48;;;;;;;;;;;21.60;93.70;;;;;;5084983;28;19971;-52
2022/05/12 10:09:00;;;;;;;;;;;20.60;86.60;;;;;;5066611;28;20007;-48
2022/05/12 10:11:27;;;;;;;;;;;20.60;90.70;;;;;;5081173;28;20601;-48
2022/05/12 10:13:54;;;;;;;;;;;20.60;93.30;;;;;;5084738;28;19930;-48
2022/05/12 10:16:23;;;;;;;;;;;20.20;95.90;;;;;;5082760;28;19947;-49
2022/05/12 10:18:51;;;;;;;;;;;19.50;93.20;;;;;;5069923;28;19932;-50
2022/05/12 10:21:22;;;;;;;;;;;19.50;95.80;;;;;;5085041;28;20396;-47
2022/05/12 10:23:58;;;;;;;;;;;19.50;95.80;;;;;;5069364;28;19932;-48
2022/05/12 10:26:29;;;;;;;;;;;19.70;95.00;;;;;;5085992;28;19931;-48
2022/05/12 10:28:55;;;;;;;;;;;19.70;89.40;;;;;;5085334;28;19986;-51
2022/05/12 10:31:39;;;;;;;;;;;19.90;92.40;;;;;;5089203;28;20024;-48
2022/05/12 10:34:19;;;;;;;;;;;20.10;92.20;;;;;;5086695;28;19971;-48
2022/05/12 10:36:45;;;;;;;;;;;20.40;95.30;;;;;;5084813;28;19924;-50
2022/05/12 10:39:13;;;;;;;;;;;20.70;92.50;;;;;;5085919;28;20378;-48
2022/05/12 10:41:45;;;;;;;;;;;21.00;92.40;;;;;;5081928;28;19932;-50
2022/05/12 10:44:17;;;;;;;;;;;20.70;87.00;;;;;;5084190;28;20267;-46
2022/05/12 10:47:07;;;;;;;;;;;20.40;88.50;;;;;;5081413;28;19932;-48
2022/05/12 10:49:47;;;;;;;;;;;20.60;84.60;;;;;;5083979;28;19936;-48
2022/05/12 10:52:27;;;;;;;;;;;20.80;83.10;;;;;;5063437;28;20014;-47
2022/05/12 10:54:53;;;;;;;;;;;20.90;77.40;;;;;;5083634;28;20267;-50
2022/05/12 10:57:18;;;;;;;;;;;20.90;78.10;;;;;;5083385;28;19930;-52
2022/05/12 10:59:59;;;;;;;;;;;21.00;71.70;;;;;;5084382;28;20412;-49
2022/05/12 11:02:38;;;;;;;;;;;21.20;70.10;;;;;;5081012;28;19933;-50
2022/05/12 11:05:07;;;;;;;;;;;21.20;65.80;;;;;;5082217;28;19932;-49
2022/05/12 11:07:38;;;;;;;;;;;21.70;73.80;;;;;;5079992;28;20247;-49
2022/05/12 11:10:05;;;;;;;;;;;21.60;70.20;;;;;;5083186;28;19931;-47
2022/05/12 11:12:38;;;;;;;;;;;21.80;71.00;;;;;;5083396;28;19955;-48
2022/05/12 11:15:23;;;;;;;;;;;21.70;68.60;;;;;;5082878;28;19931;-48
2022/05/12 11:17:57;;;;;;;;;;;21.50;70.20;;;;;;5082045;28;19931;-51
2022/05/12 11:20:27;;;;;;;;;;;21.20;70.10;;;;;;5083799;28;20001;-47
2022/05/12 11:23:19;;;;;;;;;;;20.90;71.00;;;;;;5080381;28;19932;-47
2022/05/12 11:26:04;;;;;;;;;;;21.20;72.80;;;;;;5044140;28;19924;-50
2022/05/12 11:31:40;;;;;;;;;;;20.90;72.10;;;;;;5084714;28;19956;-48
2022/05/12 11:34:08;;;;;;;;;;;20.80;69.80;;;;;;5079981;28;19927;-50
2022/05/12 11:36:38;;;;;;;;;;;20.60;71.30;;;;;;5067302;28;20408;-47
2022/05/12 11:39:20;;;;;;;;;;;20.50;72.00;;;;;;5087618;28;19924;-48
2022/05/12 11:41:45;;;;;;;;;;;20.20;69.70;;;;;;5083533;28;19978;-47
2022/05/12 11:44:34;;;;;;;;;;;20.00;69.10;;;;;;5083134;28;19932;-48
2022/05/12 11:47:01;;;;;;;;;;;19.70;72.30;;;;;;5085058;28;20252;-48
2022/05/12 11:49:45;;;;;;;;;;;19.50;73.80;;;;;;5083938;28;19928;-50
2022/05/12 11:52:29;;;;;;;;;;;19.70;76.50;;;;;;5080852;28;20360;-48
2022/05/12 11:54:57;;;;;;;;;;;20.40;78.40;;;;;;5065857;28;20007;-51
2022/05/12 11:57:27;;;;;;;;;;;20.30;73.20;;;;;;5082032;28;19924;-49
2022/05/12 11:59:57;;;;;;;;;;;20.70;73.40;;;;;;5080124;28;20019;-49
2022/05/12 12:02:29;;;;;;;;;;;21.10;72.40;;;;;;5064999;28;20366;-48
2022/05/12 12:04:58;;;;;;;;;;;20.90;69.80;;;;;;5080494;28;19963;-48
2022/05/12 12:07:30;;;;;;;;;;;21.20;68.80;;;;;;5081976;28;19950;-48
2022/05/12 12:09:58;;;;;;;;;;;21.40;66.80;;;;;;5082362;28;20066;-47
2022/05/12 12:12:49;;;;;;;;;;;21.50;66.50;;;;;;5088564;28;19928;-47
2022/05/12 12:15:26;;;;;;;;;;;21.00;65.40;;;;;;5089380;28;20461;-48
2022/05/12 12:17:52;;;;;;;;;;;21.10;66.70;;;;;;5090921;28;19934;-48
2022/05/12 12:20:29;;;;;;;;;;;21.20;66.40;;;;;;5086051;28;20309;-49
2022/05/12 12:23:18;;;;;;;;;;;21.40;68.60;;;;;;5090498;28;20713;-48
2022/05/12 12:25:45;;;;;;;;;;;21.40;68.20;;;;;;5083859;28;19924;-47
2022/05/12 12:28:29;;;;;;;;;;;21.40;66.70;;;;;;5091852;28;20636;-47
2022/05/12 12:30:55;;;;;;;;;;;21.60;68.00;;;;;;5092360;28;20267;-47
2022/05/12 12:33:20;;;;;;;;;;;21.80;64.60;;;;;;5073182;28;19931;-49
2022/05/12 12:36:03;;;;;;;;;;;21.60;63.50;;;;;;5089938;28;19967;-48
2022/05/12 12:38:40;;;;;;;;;;;21.80;65.80;;;;;;5082713;28;20408;-47
2022/05/12 12:41:05;;;;;;;;;;;21.80;62.30;;;;;;5091710;28;20366;-47
2022/05/12 12:43:37;;;;;;;;;;;22.00;65.40;;;;;;5076676;28;20084;-47
2022/05/12 12:46:19;;;;;;;;;;;21.40;64.10;;;;;;5095657;28;19928;-47
2022/05/12 12:48:56;;;;;;;;;;;21.10;65.20;;;;;;5092767;28;20422;-47
2022/05/12 12:51:27;;;;;;;;;;;21.00;66.80;;;;;;5094368;28;20247;-47
2022/05/12 12:56:37;;;;;;;;;;;21.30;66.40;;;;;;5082040;28;20413;-48
2022/05/12 12:59:04;;;;;;;;;;;21.50;63.60;;;;;;5076594;28;19966;-48
2022/05/12 13:01:36;;;;;;;;;;;21.80;64.30;;;;;;5095074;28;21276;-47
2022/05/12 13:04:02;;;;;;;;;;;21.80;63.10;;;;;;5092456;28;19924;-48
2022/05/12 13:06:30;;;;;;;;;;;21.90;62.60;;;;;;5093478;28;19928;-48
2022/05/12 13:09:00;;;;;;;;;;;21.80;59.70;;;;;;5095186;28;20077;-46
2022/05/12 13:11:26;;;;;;;;;;;21.80;62.10;;;;;;5095836;28;19978;-53
2022/05/12 13:13:52;;;;;;;;;;;21.80;59.90;;;;;;5090967;28;19924;-49
2022/05/12 13:16:20;;;;;;;;;;;21.90;59.40;;;;;;5095297;28;20018;-47
2022/05/12 13:18:48;;;;;;;;;;;21.80;58.10;;;;;;5092655;28;19924;-48
2022/05/12 13:21:36;;;;;;;;;;;21.40;60.20;;;;;;5094602;28;19931;-47
2022/05/12 13:24:11;;;;;;;;;;;21.20;59.30;;;;;;5094749;28;19932;-47
2022/05/12 13:26:37;;;;;;;;;;;21.10;61.70;;;;;;5085997;28;20007;-48
2022/05/12 13:29:06;;;;;;;;;;;20.90;61.80;;;;;;5087667;28;20027;-47
2022/05/12 13:31:36;;;;;;;;;;;21.30;61.90;;;;;;5090198;28;19947;-48
2022/05/12 13:34:11;;;;;;;;;;;21.40;59.60;;;;;;5090431;28;20389;-47
2022/05/12 13:36:39;;;;;;;;;;;21.60;61.20;;;;;;5087336;28;19928;-50
2022/05/12 13:39:05;;;;;;;;;;;21.60;59.60;;;;;;5085661;28;19928;-47
2022/05/12 13:41:32;;;;;;;;;;;21.50;58.90;;;;;;5086743;28;20334;-47
2022/05/12 13:44:18;;;;;;;;;;;21.50;58.60;;;;;;5086961;28;19970;-46
2022/05/12 13:46:48;;;;;;;;;;;21.20;58.60;;;;;;5085582;28;19924;-47
2022/05/12 13:49:14;;;;;;;;;;;20.80;60.90;;;;;;5086686;28;19924;-48
2022/05/12 13:51:43;;;;;;;;;;;21.10;58.70;;;;;;5086406;28;19924;-46
2022/05/12 13:54:20;;;;;;;;;;;21.20;61.50;;;;;;5085678;28;19924;-47
2022/05/12 13:56:45;;;;;;;;;;;20.80;58.90;;;;;;5087616;28;19928;-47
2022/05/12 13:59:19;;;;;;;;;;;20.60;62.40;;;;;;5072227;28;19924;-50
2022/05/12 14:01:46;;;;;;;;;;;20.70;61.60;;;;;;5084375;28;19931;-50
2022/05/12 14:04:13;;;;;;;;;;;21.20;62.00;;;;;;5070612;28;20388;-49
2022/05/12 14:06:40;;;;;;;;;;;20.90;59.60;;;;;;5083490;28;19944;-48
2022/05/12 14:09:07;;;;;;;;;;;20.30;58.20;;;;;;5081282;28;20367;-47
2022/05/12 14:11:32;;;;;;;;;;;20.40;58.50;;;;;;5080776;28;19928;-47
2022/05/12 14:19:31;;;;;;;;;;;20.50;61.90;;;;;;5084960;28;19930;-48
2022/05/12 14:21:58;;;;;;;;;;;20.60;60.60;;;;;;5094353;28;20607;-50
2022/05/12 14:24:25;;;;;;;;;;;20.60;60.40;;;;;;5093664;28;20336;-48
2022/05/12 14:26:51;;;;;;;;;;;20.70;62.20;;;;;;5093924;28;20335;-47
2022/05/12 14:29:16;;;;;;;;;;;20.90;61.00;;;;;;5092621;28;19924;-50
2022/05/12 14:31:43;;;;;;;;;;;21.20;59.40;;;;;;5085049;28;20011;-47
2022/05/12 14:34:09;;;;;;;;;;;21.50;61.80;;;;;;5065186;28;19924;-48
2022/05/12 14:36:35;;;;;;;;;;;21.30;57.60;;;;;;5065473;28;19931;-51
2022/05/12 14:39:01;;;;;;;;;;;21.60;60.40;;;;;;5084123;28;19924;-48
2022/05/12 14:41:26;;;;;;;;;;;21.50;57.40;;;;;;5090807;28;20000;-50
2022/05/12 14:43:52;;;;;;;;;;;21.10;57.10;;;;;;5080719;28;19992;-48
2022/05/12 14:46:21;;;;;;;;;;;20.70;58.40;;;;;;5079362;28;20019;-48
2022/05/12 14:48:47;;;;;;;;;;;20.80;59.50;;;;;;5073816;28;20343;-48
2022/05/12 14:51:12;;;;;;;;;;;20.80;60.10;;;;;;5091727;28;19999;-48
2022/05/12 14:53:39;;;;;;;;;;;20.80;59.00;;;;;;5090108;28;20009;-49
2022/05/12 14:56:05;;;;;;;;;;;20.90;59.60;;;;;;5090026;28;19931;-49
2022/05/12 14:58:31;;;;;;;;;;;20.90;59.90;;;;;;5062015;28;20442;-47
2022/05/12 15:00:56;;;;;;;;;;;20.80;59.10;;;;;;5070081;28;20011;-47
2022/05/12 15:03:22;;;;;;;;;;;20.80;60.10;;;;;;5085185;28;19960;-47
2022/05/12 15:05:47;;;;;;;;;;;21.10;60.70;;;;;;5084239;28;20015;-48
2022/05/12 15:08:13;;;;;;;;;;;21.30;60.20;;;;;;5074094;28;19924;-49